Time;durP1;ratioP1;P1;durP2;ratioP2;P2;SDS_P1;SDS_P2;PMS_P1;PMS_P2;Temp;Humidity;BMP_temperature;BMP_pressure;BME280_temperature;BME280_humidity;BME280_pressure;Samples;Min_cycle;Max_cycle;Signal;HPM_P1;HPM_P2
2023/06/06 00:01:43;;;;;;;;;8.00;8.00;;;;;22.27;38.05;98956.31;7699665;22;96206;-66
2023/06/06 00:04:49;;;;;;;;;9.40;7.60;;;;;22.22;38.15;98961.06;7700253;22;96511;-65
2023/06/06 00:07:54;;;;;;;;;8.00;8.00;;;;;22.16;38.83;98954.00;7699073;22;96328;-66
2023/06/06 00:10:57;;;;;;;;;8.00;8.00;;;;;22.14;38.35;98958.97;7647393;22;96689;-66
2023/06/06 00:14:01;;;;;;;;;8.00;7.00;;;;;22.16;38.30;98954.81;7699571;22;96724;-67
2023/06/06 00:17:06;;;;;;;;;10.00;10.00;;;;;21.98;38.99;98937.22;7646573;22;96653;-66
2023/06/06 00:20:11;;;;;;;;;9.60;8.60;;;;;22.01;38.81;98952.25;7700032;22;96399;-67
2023/06/06 00:23:15;;;;;;;;;10.00;9.00;;;;;21.97;38.96;98935.56;7671595;22;98279;-65
2023/06/06 00:26:18;;;;;;;;;9.40;9.00;;;;;21.91;39.27;98936.72;7671915;22;98813;-66
2023/06/06 00:29:23;;;;;;;;;9.00;8.00;;;;;21.91;39.08;98939.44;7672254;22;96657;-66
2023/06/06 00:32:28;;;;;;;;;6.00;6.00;;;;;21.91;39.13;98933.97;7698670;22;96339;-66
2023/06/06 00:35:31;;;;;;;;;7.00;7.00;;;;;21.90;38.89;98937.00;7679073;22;97025;-66
2023/06/06 00:38:35;;;;;;;;;8.67;8.00;;;;;21.85;38.65;98929.66;7699520;22;97443;-67
2023/06/06 00:41:38;;;;;;;;;7.40;7.40;;;;;21.73;39.19;98931.19;7672648;22;99468;-67
2023/06/06 00:44:42;;;;;;;;;10.00;9.00;;;;;21.76;39.62;98925.09;7698641;22;96260;-66
2023/06/06 00:47:47;;;;;;;;;8.20;8.00;;;;;21.72;39.75;98932.28;7698195;22;96198;-65
2023/06/06 00:50:51;;;;;;;;;8.00;7.60;;;;;21.63;39.25;98934.06;7699746;22;96357;-66
2023/06/06 00:53:59;;;;;;;;;8.00;8.00;;;;;21.54;39.71;98918.25;7698596;22;96792;-67
2023/06/06 00:57:03;;;;;;;;;8.00;8.00;;;;;21.64;39.55;98939.25;7672337;22;96641;-67
2023/06/06 01:00:08;;;;;;;;;5.50;5.00;;;;;21.62;39.18;98930.50;7699572;22;98022;-67
2023/06/06 01:03:15;;;;;;;;;8.40;7.40;;;;;21.52;39.57;98928.69;7699010;22;97442;-67
2023/06/06 01:06:19;;;;;;;;;7.40;7.00;;;;;21.55;39.74;98932.78;7699898;22;96974;-66
2023/06/06 01:09:24;;;;;;;;;9.20;8.40;;;;;21.54;39.47;98923.72;7700289;22;96251;-66
2023/06/06 01:12:48;;;;;;;;;7.67;7.67;;;;;21.51;39.47;98923.47;7698387;22;96792;-67
2023/06/06 01:15:54;;;;;;;;;7.00;7.00;;;;;21.42;39.77;98927.97;7724329;22;96220;-66
2023/06/06 01:19:01;;;;;;;;;6.50;6.00;;;;;21.35;39.83;98922.84;7700515;22;96437;-67
2023/06/06 01:22:07;;;;;;;;;9.00;9.00;;;;;21.38;39.68;98925.00;7699711;22;96237;-67
2023/06/06 01:25:12;;;;;;;;;8.80;8.80;;;;;21.40;40.51;98922.81;7698403;22;97404;-67
2023/06/06 01:28:16;;;;;;;;;5.75;5.00;;;;;21.32;40.30;98919.84;7696706;22;96695;-67
2023/06/06 01:31:24;;;;;;;;;8.50;7.50;;;;;21.35;40.20;98924.78;7672444;22;96419;-67
2023/06/06 01:34:33;;;;;;;;;8.00;7.40;;;;;21.25;40.53;98922.97;7697552;22;98261;-67
2023/06/06 01:37:45;;;;;;;;;6.20;5.80;;;;;21.30;40.58;98928.41;7647637;22;97670;-66
2023/06/06 01:40:52;;;;;;;;;9.00;9.00;;;;;21.18;40.46;98931.53;7699879;22;96356;-66
2023/06/06 01:43:56;;;;;;;;;9.00;9.00;;;;;21.22;40.33;98925.44;7673345;22;96454;-66
2023/06/06 01:47:01;;;;;;;;;10.40;9.40;;;;;21.17;40.76;98931.81;7672940;22;97600;-67
2023/06/06 01:50:09;;;;;;;;;7.00;7.00;;;;;21.19;40.44;98929.59;7699914;22;97128;-66
2023/06/06 01:53:14;;;;;;;;;10.50;9.75;;;;;21.09;40.85;98933.22;7699786;22;96415;-67
2023/06/06 01:56:17;;;;;;;;;8.00;8.00;;;;;20.93;41.21;98931.72;7672269;22;96429;-66
2023/06/06 01:59:20;;;;;;;;;7.00;7.00;;;;;20.98;41.15;98925.38;7697401;22;96243;-66
2023/06/06 02:02:24;;;;;;;;;5.50;5.00;;;;;20.98;41.32;98923.47;7670943;22;96372;-66
2023/06/06 02:05:27;;;;;;;;;7.80;7.20;;;;;21.01;41.70;98920.13;7699109;22;96267;-66
2023/06/06 02:08:33;;;;;;;;;9.00;8.00;;;;;21.04;41.73;98927.81;7698892;22;96266;-66
2023/06/06 02:11:36;;;;;;;;;7.80;7.80;;;;;21.02;41.73;98932.75;7670862;22;96835;-66
2023/06/06 02:14:41;;;;;;;;;11.00;9.00;;;;;20.89;41.62;98919.72;7672454;22;96149;-66
2023/06/06 02:17:44;;;;;;;;;8.00;8.00;;;;;20.91;41.63;98931.22;7671919;22;96231;-66
2023/06/06 02:20:48;;;;;;;;;7.60;7.60;;;;;20.92;41.63;98921.88;7672663;22;96359;-65
2023/06/06 02:23:52;;;;;;;;;6.00;6.00;;;;;20.91;41.91;98922.19;7699818;22;96321;-66
2023/06/06 02:26:57;;;;;;;;;6.75;6.25;;;;;20.88;41.78;98922.72;7699600;22;97082;-66
2023/06/06 02:30:00;;;;;;;;;8.00;8.00;;;;;20.90;41.72;98923.28;7696521;22;96597;-66
2023/06/06 02:33:06;;;;;;;;;7.00;7.00;;;;;20.77;42.33;98922.00;7672215;22;96615;-67
2023/06/06 02:36:10;;;;;;;;;7.00;7.00;;;;;20.68;42.40;98927.28;7659849;22;96980;-67
2023/06/06 02:39:15;;;;;;;;;10.50;9.75;;;;;20.64;42.46;98925.41;7697419;22;96214;-66
2023/06/06 02:42:18;;;;;;;;;10.00;8.00;;;;;20.63;42.61;98926.50;7697403;22;96887;-66
2023/06/06 02:45:22;;;;;;;;;9.20;8.00;;;;;20.64;42.46;98926.22;7698753;22;96197;-66
2023/06/06 02:48:26;;;;;;;;;10.00;10.00;;;;;20.60;43.37;98930.66;7669981;22;98457;-66
2023/06/06 02:51:30;;;;;;;;;8.25;8.00;;;;;20.59;42.38;98934.47;7695361;22;96612;-66
2023/06/06 02:54:34;;;;;;;;;9.25;9.00;;;;;20.54;43.19;98931.78;7698811;22;96394;-66
2023/06/06 02:57:38;;;;;;;;;10.00;10.00;;;;;20.56;42.68;98935.06;7696845;22;98069;-66
2023/06/06 03:00:41;;;;;;;;;9.40;8.00;;;;;20.50;43.08;98936.19;7698179;22;96429;-64
2023/06/06 03:03:45;;;;;;;;;8.20;8.20;;;;;20.49;43.27;98942.78;7696998;22;96136;-66
2023/06/06 03:06:49;;;;;;;;;8.00;8.00;;;;;20.52;42.99;98933.19;7698891;22;96441;-65
2023/06/06 03:09:54;;;;;;;;;7.00;6.00;;;;;20.58;42.91;98937.50;7695328;22;96626;-65
2023/06/06 03:13:02;;;;;;;;;9.00;8.00;;;;;20.47;42.92;98936.78;7697119;22;96220;-66
2023/06/06 03:16:06;;;;;;;;;8.60;8.00;;;;;20.19;42.93;98882.72;7722628;22;97467;-66
2023/06/06 03:19:13;;;;;;;;;8.40;7.80;;;;;20.52;42.81;98935.91;7670094;22;96628;-66
2023/06/06 03:22:17;;;;;;;;;7.50;7.50;;;;;20.52;42.82;98930.44;7696142;22;96280;-65
2023/06/06 03:25:25;;;;;;;;;9.00;8.40;;;;;20.54;42.56;98942.75;7670246;22;98319;-66
2023/06/06 03:28:31;;;;;;;;;8.00;8.00;;;;;20.51;42.73;98942.50;7697822;22;96344;-66
2023/06/06 03:31:36;;;;;;;;;8.00;7.50;;;;;20.49;42.92;98937.28;7695898;22;96389;-63
2023/06/06 03:34:41;;;;;;;;;7.00;7.00;;;;;20.48;43.12;98938.41;7698514;22;96712;-66
2023/06/06 03:37:47;;;;;;;;;11.00;11.00;;;;;20.41;43.29;98931.63;7644267;22;96972;-65
2023/06/06 03:40:52;;;;;;;;;10.00;8.50;;;;;20.47;43.10;98928.56;7698162;22;96288;-65
2023/06/06 03:43:56;;;;;;;;;8.60;8.60;;;;;20.48;43.03;98926.63;7671778;22;96383;-66
2023/06/06 03:47:00;;;;;;;;;7.20;7.20;;;;;20.49;42.91;98931.81;7670912;22;96784;-65
2023/06/06 03:50:04;;;;;;;;;8.00;8.00;;;;;20.46;43.21;98926.09;7671176;22;98545;-66
2023/06/06 03:53:08;;;;;;;;;8.60;8.00;;;;;20.48;43.14;98932.91;7673029;22;97242;-66
2023/06/06 03:56:15;;;;;;;;;9.00;9.00;;;;;20.45;42.75;98936.22;7671357;22;96326;-66
2023/06/06 03:59:19;;;;;;;;;9.00;9.00;;;;;20.51;42.89;98926.06;7645714;22;98415;-66
2023/06/06 04:02:22;;;;;;;;;7.50;7.50;;;;;20.49;43.04;98936.47;7672167;22;96867;-65
2023/06/06 04:05:26;;;;;;;;;7.00;7.00;;;;;20.53;43.14;98923.84;7696043;22;96303;-65
2023/06/06 04:08:29;;;;;;;;;9.60;9.00;;;;;20.54;43.08;98931.78;7698232;22;96498;-65
2023/06/06 04:11:35;;;;;;;;;8.80;8.40;;;;;20.58;43.06;98924.63;7695068;22;96412;-65
2023/06/06 04:14:39;;;;;;;;;9.00;8.00;;;;;20.68;43.20;98935.50;7645865;22;96584;-65
2023/06/06 04:17:42;;;;;;;;;7.80;7.80;;;;;20.71;43.22;98928.66;7645726;22;96776;-65
2023/06/06 04:20:46;;;;;;;;;7.80;7.80;;;;;20.62;43.22;98922.16;7670918;22;96523;-65
2023/06/06 04:23:49;;;;;;;;;10.00;9.00;;;;;20.65;42.95;98916.91;7670259;22;96322;-66
2023/06/06 04:26:54;;;;;;;;;7.00;7.00;;;;;20.69;42.75;98908.94;7671852;22;97418;-66
2023/06/06 04:29:58;;;;;;;;;7.40;7.40;;;;;20.74;42.83;98914.38;7672744;22;96201;-66
2023/06/06 04:33:02;;;;;;;;;7.60;7.60;;;;;20.87;42.21;98912.88;7671825;22;96588;-66
2023/06/06 04:36:07;;;;;;;;;11.00;9.50;;;;;20.89;42.55;98916.16;7670887;22;100235;-66
2023/06/06 04:39:10;;;;;;;;;10.00;9.00;;;;;20.85;42.49;98915.91;7697990;22;96445;-66
2023/06/06 04:42:15;;;;;;;;;8.40;8.00;;;;;20.97;42.37;98918.25;7668740;22;98562;-66
2023/06/06 04:45:19;;;;;;;;;10.00;9.20;;;;;21.10;42.12;98921.16;7698132;22;96341;-65
2023/06/06 04:48:25;;;;;;;;;10.00;10.00;;;;;21.19;42.10;98921.38;7642970;22;97559;-65
2023/06/06 04:51:30;;;;;;;;;9.40;9.40;;;;;21.18;41.63;98909.59;7669633;22;96203;-65
2023/06/06 04:54:35;;;;;;;;;11.00;10.40;;;;;21.41;41.42;98918.09;7696707;22;97559;-65
2023/06/06 04:57:40;;;;;;;;;8.00;8.00;;;;;21.51;40.85;98916.06;7697558;22;96542;-66
2023/06/06 05:00:46;;;;;;;;;10.00;10.00;;;;;21.66;40.61;98917.00;7697187;22;96839;-66
2023/06/06 05:03:50;;;;;;;;;9.80;8.80;;;;;21.59;40.12;98917.38;7697956;22;96186;-65
2023/06/06 05:06:54;;;;;;;;;9.00;9.00;;;;;21.72;40.60;98922.13;7698361;22;96346;-66
2023/06/06 05:09:57;;;;;;;;;9.00;9.00;;;;;21.89;40.54;98918.91;7696951;22;96320;-66
2023/06/06 05:13:02;;;;;;;;;8.00;7.00;;;;;22.00;40.24;98914.94;7698428;22;96398;-66
2023/06/06 05:16:07;;;;;;;;;12.00;10.00;;;;;22.02;39.41;98918.22;7699054;22;96216;-66
2023/06/06 05:19:11;;;;;;;;;9.00;9.00;;;;;22.12;39.79;98917.25;7670829;22;96757;-66
2023/06/06 05:22:14;;;;;;;;;10.60;10.00;;;;;22.32;39.92;98920.53;7699608;22;96765;-66
2023/06/06 05:25:18;;;;;;;;;8.20;7.20;;;;;22.19;39.74;98902.03;7697573;22;96182;-66
2023/06/06 05:28:23;;;;;;;;;9.00;7.60;;;;;22.50;39.62;98918.06;7668712;22;96678;-66
2023/06/06 05:31:26;;;;;;;;;7.80;7.00;;;;;22.80;39.75;98923.09;7670649;22;97161;-65
2023/06/06 05:34:30;;;;;;;;;9.00;9.00;;;;;22.99;38.83;98917.53;7670797;22;96468;-66
2023/06/06 05:37:33;;;;;;;;;7.00;6.50;;;;;23.18;38.11;98918.28;7698146;22;96466;-64
2023/06/06 05:40:37;;;;;;;;;8.00;7.40;;;;;23.13;37.84;98888.94;7698765;22;96762;-66
2023/06/06 05:43:46;;;;;;;;;9.67;8.00;;;;;23.44;37.61;98913.13;7699622;22;97105;-66
2023/06/06 05:46:54;;;;;;;;;8.00;8.00;;;;;23.63;37.56;98906.44;7698200;22;96747;-65
2023/06/06 05:49:59;;;;;;;;;8.80;8.20;;;;;23.90;37.58;98905.56;7699999;22;96175;-65
2023/06/06 05:53:02;;;;;;;;;9.00;8.00;;;;;24.03;36.76;98909.44;7698130;22;97110;-66
2023/06/06 05:56:06;;;;;;;;;7.00;7.00;;;;;24.31;36.89;98919.28;7647160;22;98458;-65
2023/06/06 05:59:11;;;;;;;;;10.50;10.25;;;;;24.37;36.31;98925.50;7673760;22;96364;-66
2023/06/06 06:02:16;;;;;;;;;8.00;8.00;;;;;24.44;36.02;98929.44;7671409;22;96650;-66
2023/06/06 06:05:20;;;;;;;;;12.00;10.00;;;;;24.43;36.36;98930.59;7699513;22;96897;-65
2023/06/06 06:08:24;;;;;;;;;7.20;7.00;;;;;24.46;36.65;98935.47;7671402;22;96382;-66
2023/06/06 06:11:27;;;;;;;;;8.00;8.00;;;;;24.51;35.99;98926.28;7697740;22;96723;-65
2023/06/06 06:14:32;;;;;;;;;7.00;6.50;;;;;24.50;35.78;98928.22;7698399;22;96518;-66
2023/06/06 06:17:35;;;;;;;;;9.40;9.00;;;;;24.49;36.20;98923.81;7697537;22;97265;-66
2023/06/06 06:20:39;;;;;;;;;8.00;8.00;;;;;24.50;36.07;98924.63;7699130;22;96269;-66
2023/06/06 06:23:42;;;;;;;;;9.00;8.00;;;;;24.54;36.07;98929.22;7672241;22;96939;-65
2023/06/06 06:26:46;;;;;;;;;8.80;8.80;;;;;24.63;36.54;98932.03;7697620;22;96211;-65
2023/06/06 06:29:51;;;;;;;;;9.00;8.00;;;;;24.76;36.17;98939.44;7697005;22;96186;-65
2023/06/06 06:32:54;;;;;;;;;8.00;8.00;;;;;24.62;36.12;98935.94;7696715;22;96230;-65
2023/06/06 06:35:58;;;;;;;;;9.00;8.00;;;;;24.72;36.35;98930.19;7656502;22;98282;-65
2023/06/06 06:39:01;;;;;;;;;7.60;7.00;;;;;24.80;36.49;98926.66;7697676;22;96181;-66
2023/06/06 06:42:07;;;;;;;;;10.00;9.40;;;;;25.00;35.95;98928.13;7698326;22;96322;-65
2023/06/06 06:45:26;;;;;;;;;9.00;8.00;;;;;24.98;35.92;98924.84;7698009;22;96494;-65
2023/06/06 06:48:30;;;;;;;;;8.40;8.40;;;;;24.87;35.55;98929.00;7697880;22;96544;-65
2023/06/06 06:51:33;;;;;;;;;6.60;6.60;;;;;24.88;36.20;98936.13;7699854;22;96494;-66
2023/06/06 06:54:45;;;;;;;;;8.80;8.00;;;;;24.84;35.70;98921.31;7700158;22;96201;-66
2023/06/06 06:57:50;;;;;;;;;11.00;9.75;;;;;24.77;35.92;98926.47;7699274;22;96765;-65
2023/06/06 07:00:56;;;;;;;;;9.40;8.60;;;;;24.78;36.06;98930.84;7698677;22;97463;-65
2023/06/06 07:03:59;;;;;;;;;7.00;7.00;;;;;24.77;36.42;98924.53;7696841;22;96241;-66
2023/06/06 07:07:03;;;;;;;;;8.50;7.00;;;;;24.78;36.46;98926.16;7699199;22;96415;-65
2023/06/06 07:10:07;;;;;;;;;10.50;9.00;;;;;24.82;36.55;98923.59;7699287;22;96790;-66
2023/06/06 07:13:13;;;;;;;;;10.00;10.00;;;;;24.88;36.62;98922.34;7698496;22;96860;-66
2023/06/06 07:16:18;;;;;;;;;7.80;6.80;;;;;24.98;37.08;98922.91;7699367;22;96808;-66
2023/06/06 07:19:22;;;;;;;;;9.00;7.75;;;;;25.03;36.32;98928.28;7699676;22;96248;-66
2023/06/06 07:22:26;;;;;;;;;11.75;10.50;;;;;24.98;35.83;98927.59;7697127;22;96452;-66
2023/06/06 07:25:29;;;;;;;;;9.60;9.00;;;;;25.01;36.26;98925.06;7697804;22;96279;-65
2023/06/06 07:28:32;;;;;;;;;9.40;9.00;;;;;24.99;35.85;98924.53;7698856;22;96167;-66
2023/06/06 07:31:38;;;;;;;;;10.50;8.75;;;;;24.94;35.75;98921.91;7698930;22;96279;-66
2023/06/06 07:34:42;;;;;;;;;8.20;8.00;;;;;24.97;36.33;98918.50;7698342;22;96632;-65
2023/06/06 07:37:45;;;;;;;;;9.25;9.25;;;;;25.12;36.62;98927.56;7646568;22;98520;-66
2023/06/06 07:40:48;;;;;;;;;7.40;7.00;;;;;25.10;35.91;98907.72;7698882;22;96680;-67
2023/06/06 07:43:52;;;;;;;;;9.00;8.00;;;;;25.16;35.46;98912.00;7698698;22;96183;-65
2023/06/06 07:46:56;;;;;;;;;9.00;8.00;;;;;25.31;35.59;98906.88;7699187;22;96372;-65
2023/06/06 07:50:02;;;;;;;;;9.00;8.00;;;;;25.46;35.51;98908.41;7671106;22;96246;-66
2023/06/06 07:53:05;;;;;;;;;9.00;8.60;;;;;25.65;35.00;98919.22;7699397;22;96246;-66
2023/06/06 07:56:08;;;;;;;;;7.50;7.00;;;;;25.80;34.36;98925.09;7671937;22;96722;-66
2023/06/06 07:59:13;;;;;;;;;9.40;9.40;;;;;26.03;34.53;98919.47;7672626;22;96756;-66
2023/06/06 08:02:18;;;;;;;;;9.00;8.00;;;;;26.28;34.76;98915.97;7698874;22;96210;-65
2023/06/06 08:05:22;;;;;;;;;10.00;9.00;;;;;26.54;33.98;98919.53;7697145;22;97910;-66
2023/06/06 08:08:26;;;;;;;;;9.00;9.00;;;;;26.76;33.61;98912.22;7696811;22;96491;-66
2023/06/06 08:11:29;;;;;;;;;9.75;9.00;;;;;27.08;33.95;98914.44;7670644;22;96249;-64
2023/06/06 08:14:34;;;;;;;;;10.00;9.00;;;;;27.20;32.07;98905.47;7698432;22;96236;-66
2023/06/06 08:17:39;;;;;;;;;10.00;8.40;;;;;27.28;31.63;98899.91;7700257;22;96145;-66
2023/06/06 08:20:43;;;;;;;;;8.00;8.00;;;;;27.53;32.97;98903.75;7700414;22;96811;-66
2023/06/06 08:23:46;;;;;;;;;9.00;8.00;;;;;27.77;32.29;98900.34;7700849;22;96271;-66
2023/06/06 08:26:50;;;;;;;;;8.40;8.00;;;;;27.86;31.87;98878.94;7700053;22;96861;-66
2023/06/06 08:29:54;;;;;;;;;9.00;8.00;;;;;28.01;31.93;98895.81;7700633;22;96414;-66
2023/06/06 08:32:59;;;;;;;;;10.20;9.60;;;;;28.21;32.01;98896.19;7700610;22;96187;-65
2023/06/06 08:36:03;;;;;;;;;9.00;8.00;;;;;28.25;31.10;98899.91;7684128;22;96798;-66
2023/06/06 08:39:07;;;;;;;;;9.60;8.60;;;;;28.39;31.39;98901.25;7701362;22;96454;-66
2023/06/06 08:42:11;;;;;;;;;9.80;8.80;;;;;28.63;31.04;98913.66;7698922;22;96769;-66
2023/06/06 08:45:14;;;;;;;;;10.60;10.40;;;;;28.97;30.76;98906.97;7672789;22;97198;-66
2023/06/06 08:48:20;;;;;;;;;8.00;7.00;;;;;29.09;30.29;98902.25;7699921;22;96133;-65
2023/06/06 08:51:27;;;;;;;;;8.00;7.00;;;;;29.19;30.36;98899.03;7701579;22;96177;-66
2023/06/06 08:54:31;;;;;;;;;11.00;10.60;;;;;29.16;31.07;98902.53;7701301;22;96180;-66
2023/06/06 08:57:41;;;;;;;;;8.75;8.75;;;;;29.21;30.85;98905.09;7701051;22;96697;-66
2023/06/06 09:00:46;;;;;;;;;8.40;8.00;;;;;29.11;30.42;98904.72;7699403;22;98420;-66
2023/06/06 09:03:53;;;;;;;;;11.00;10.00;;;;;28.59;30.28;98910.72;7701844;22;96264;-66
2023/06/06 09:07:00;;;;;;;;;9.00;9.00;;;;;28.43;31.28;98913.31;7698381;22;98460;-66
2023/06/06 09:10:04;;;;;;;;;10.00;10.00;;;;;28.31;31.22;98910.47;7700573;22;96188;-66
2023/06/06 09:13:08;;;;;;;;;10.00;9.00;;;;;27.99;31.07;98919.47;7701165;22;96838;-66
2023/06/06 09:16:12;;;;;;;;;7.20;7.20;;;;;27.79;31.17;98914.69;7700724;22;96815;-66
2023/06/06 09:19:25;;;;;;;;;11.25;10.75;;;;;27.59;32.43;98919.03;7700598;22;96496;-66
2023/06/06 09:22:28;;;;;;;;;10.00;8.67;;;;;27.64;32.19;98916.06;7701571;22;96382;-66
2023/06/06 09:25:32;;;;;;;;;10.40;8.60;;;;;27.67;32.63;98909.03;7700660;22;96193;-65
2023/06/06 09:28:39;;;;;;;;;11.00;10.80;;;;;27.69;32.11;98907.59;7700392;22;96166;-66
2023/06/06 09:31:42;;;;;;;;;10.00;10.00;;;;;27.69;31.90;98906.75;7701021;22;96152;-65
2023/06/06 09:34:48;;;;;;;;;10.00;9.00;;;;;27.81;32.82;98915.97;7698454;22;98854;-66
2023/06/06 09:37:53;;;;;;;;;9.00;8.00;;;;;27.87;32.23;98911.06;7699495;22;96301;-65
2023/06/06 09:40:59;;;;;;;;;9.00;9.00;;;;;27.76;32.59;98913.41;7671500;22;96624;-66
2023/06/06 09:44:04;;;;;;;;;10.25;9.00;;;;;27.86;33.31;98920.50;7699768;22;96936;-65
2023/06/06 09:47:08;;;;;;;;;8.80;8.80;;;;;27.67;32.79;98918.16;7699402;22;96825;-66
2023/06/06 09:50:15;;;;;;;;;10.00;9.60;;;;;27.63;32.97;98928.28;7672301;22;98310;-66
2023/06/06 09:53:18;;;;;;;;;8.60;8.60;;;;;27.41;33.55;98918.28;7700892;22;96520;-66
2023/06/06 09:56:23;;;;;;;;;10.00;9.00;;;;;27.46;33.67;98917.28;7700334;22;96367;-66
2023/06/06 09:59:27;;;;;;;;;9.00;9.00;;;;;27.40;34.42;98913.06;7699344;22;96305;-66
2023/06/06 10:02:35;;;;;;;;;10.40;10.40;;;;;27.41;35.39;98915.50;7700419;22;96813;-66
2023/06/06 10:05:40;;;;;;;;;11.00;11.00;;;;;27.44;34.76;98911.25;7701145;22;96805;-66
2023/06/06 10:08:46;;;;;;;;;10.50;9.50;;;;;27.44;34.68;98919.56;7699040;22;96211;-66
2023/06/06 10:11:51;;;;;;;;;11.00;11.00;;;;;27.12;35.23;98874.72;7698426;22;96198;-66
2023/06/06 10:14:55;;;;;;;;;8.60;7.60;;;;;27.45;35.21;98919.22;7695781;22;98253;-66
2023/06/06 10:18:00;;;;;;;;;10.80;9.80;;;;;27.43;35.59;98921.50;7700328;22;96190;-66
2023/06/06 10:21:06;;;;;;;;;10.25;10.00;;;;;27.45;35.77;98924.78;7700528;22;96461;-65
2023/06/06 10:24:10;;;;;;;;;11.67;9.00;;;;;27.31;36.36;98924.16;7672877;22;96641;-66
2023/06/06 10:27:19;;;;;;;;;11.80;11.00;;;;;27.06;36.94;98925.88;7700239;22;96841;-66
2023/06/06 10:30:33;;;;;;;;;10.20;9.80;;;;;26.91;38.82;98922.78;7671811;22;98332;-66
2023/06/06 10:33:44;;;;;;;;;10.00;9.00;;;;;26.83;39.57;98923.59;7699725;22;95893;-66
2023/06/06 10:36:49;;;;;;;;;12.00;10.00;;;;;26.83;38.28;98921.63;7698304;22;96450;-66
2023/06/06 10:40:01;;;;;;;;;12.00;11.00;;;;;26.88;40.13;98929.78;7698951;22;96217;-66
2023/06/06 10:43:05;;;;;;;;;12.25;11.25;;;;;26.84;39.27;98911.38;7699176;22;96513;-66
2023/06/06 10:46:08;;;;;;;;;11.00;11.00;;;;;26.94;39.48;98930.44;7672922;22;96861;-66
2023/06/06 10:49:12;;;;;;;;;11.60;10.60;;;;;27.02;40.03;98929.63;7671180;22;99075;-66
2023/06/06 10:52:16;;;;;;;;;10.60;10.20;;;;;27.03;39.19;98934.00;7697132;22;96351;-66
2023/06/06 10:55:44;;;;;;;;;11.40;10.60;;;;;26.91;38.55;98929.16;7699720;22;96862;-66
2023/06/06 10:58:48;;;;;;;;;11.40;11.00;;;;;26.89;38.51;98933.38;7672055;22;98479;-65
2023/06/06 11:01:53;;;;;;;;;11.20;11.00;;;;;26.81;39.03;98932.22;7671925;22;96712;-65
2023/06/06 11:05:00;;;;;;;;;11.80;11.20;;;;;26.78;38.74;98938.38;7700343;22;96243;-66
2023/06/06 11:08:07;;;;;;;;;11.50;11.50;;;;;26.70;40.49;98934.50;7699838;22;96322;-65
2023/06/06 11:11:26;;;;;;;;;12.00;12.00;;;;;26.67;39.73;98931.59;7670904;22;96458;-66
2023/06/06 11:14:30;;;;;;;;;9.00;8.40;;;;;26.74;41.33;98935.47;7699215;22;96351;-65
2023/06/06 11:17:44;;;;;;;;;10.75;9.75;;;;;26.69;41.20;98930.09;7700125;22;96917;-66
2023/06/06 11:20:48;;;;;;;;;13.60;13.00;;;;;26.72;41.33;98934.19;7695703;22;96279;-66
2023/06/06 11:23:54;;;;;;;;;10.20;9.00;;;;;26.60;40.98;98936.78;7699533;22;96212;-65
2023/06/06 11:26:58;;;;;;;;;15.00;12.60;;;;;26.49;41.57;98939.03;7670141;22;98464;-66
2023/06/06 11:30:02;;;;;;;;;13.00;12.40;;;;;26.44;41.01;98944.72;7671684;22;97279;-66
2023/06/06 11:33:09;;;;;;;;;15.00;13.00;;;;;26.37;42.16;98946.38;7699528;22;96273;-66
2023/06/06 11:36:13;;;;;;;;;12.40;11.00;;;;;26.27;42.37;98937.25;7686008;22;99532;-66
2023/06/06 11:39:20;;;;;;;;;14.00;13.00;;;;;26.29;42.74;98948.00;7699706;22;96823;-66
2023/06/06 11:42:25;;;;;;;;;13.00;12.20;;;;;26.15;43.14;98944.50;7698327;22;96755;-66
2023/06/06 11:45:31;;;;;;;;;10.50;10.25;;;;;26.16;44.65;98937.84;7697033;22;96781;-66
2023/06/06 11:48:35;;;;;;;;;12.00;12.00;;;;;26.12;45.31;98929.41;7697066;22;96423;-66
2023/06/06 11:51:39;;;;;;;;;12.00;11.50;;;;;26.23;46.53;98935.47;7697732;22;96971;-66
2023/06/06 11:54:57;;;;;;;;;11.80;10.80;;;;;26.35;44.38;98943.91;7700256;22;96118;-66
2023/06/06 11:58:03;;;;;;;;;12.00;10.00;;;;;26.39;44.47;98947.66;7701219;22;96213;-66
2023/06/06 12:01:08;;;;;;;;;11.00;10.20;;;;;26.33;45.25;98946.22;7699678;22;96299;-66
2023/06/06 12:04:12;;;;;;;;;10.60;10.60;;;;;26.37;44.72;98951.91;7701310;22;96256;-66
2023/06/06 12:07:16;;;;;;;;;14.00;14.00;;;;;26.32;43.56;98949.28;7698537;22;96317;-66
2023/06/06 12:10:26;;;;;;;;;14.00;13.25;;;;;26.22;43.99;98953.19;7671644;22;96615;-66
2023/06/06 12:13:33;;;;;;;;;13.00;12.00;;;;;26.24;44.30;98943.41;7695483;22;96487;-67
2023/06/06 12:16:37;;;;;;;;;12.60;11.60;;;;;26.21;44.12;98944.06;7700921;22;96362;-66
2023/06/06 12:19:40;;;;;;;;;13.00;11.00;;;;;26.20;44.74;98949.88;7701288;22;96458;-65
2023/06/06 12:22:49;;;;;;;;;13.00;10.33;;;;;26.09;43.74;98940.28;7700912;22;96328;-67
2023/06/06 12:25:57;;;;;;;;;12.40;11.00;;;;;26.10;42.83;98939.13;7701170;22;96214;-66
2023/06/06 12:29:02;;;;;;;;;12.60;11.60;;;;;26.17;42.64;98945.81;7701013;22;96421;-66
2023/06/06 12:32:17;;;;;;;;;11.00;10.00;;;;;26.22;43.38;98928.31;7673870;22;98537;-65
2023/06/06 12:35:21;;;;;;;;;12.00;11.00;;;;;26.37;42.70;98936.13;7701094;22;96101;-66
2023/06/06 12:38:24;;;;;;;;;12.50;11.50;;;;;26.50;43.36;98928.81;7701621;22;96223;-65
2023/06/06 12:41:39;;;;;;;;;11.40;11.00;;;;;26.59;42.89;98924.91;7701331;22;96695;-66
2023/06/06 12:44:43;;;;;;;;;8.00;8.00;;;;;26.73;43.69;98916.44;7675316;22;96240;-65
2023/06/06 12:47:48;;;;;;;;;11.00;10.00;;;;;26.91;45.80;98912.53;7699288;22;96180;-66
2023/06/06 12:50:52;;;;;;;;;9.00;8.00;;;;;27.01;45.23;98922.44;7700550;22;96270;-65
2023/06/06 12:53:56;;;;;;;;;10.00;9.00;;;;;26.97;45.16;98893.81;7701112;22;96224;-66
2023/06/06 12:57:00;;;;;;;;;10.60;9.00;;;;;27.15;44.27;98912.00;7673671;22;96307;-65
2023/06/06 13:00:08;;;;;;;;;10.00;9.00;;;;;27.10;44.79;98909.41;7671634;22;96648;-66
2023/06/06 13:03:11;;;;;;;;;9.20;9.20;;;;;27.13;45.10;98912.31;7701753;22;96416;-66
2023/06/06 13:06:15;;;;;;;;;10.00;10.00;;;;;27.14;44.34;98913.94;7700241;22;96192;-66
2023/06/06 13:09:19;;;;;;;;;9.00;8.60;;;;;27.10;43.81;98906.63;7701067;22;96509;-66
2023/06/06 13:12:23;;;;;;;;;10.00;8.75;;;;;27.06;44.27;98900.16;7674600;22;98376;-66
2023/06/06 13:15:30;;;;;;;;;11.00;11.00;;;;;27.04;44.81;98899.66;7698972;22;96479;-66
2023/06/06 13:18:37;;;;;;;;;12.00;12.00;;;;;27.00;44.98;98898.69;7672794;22;96690;-67
2023/06/06 13:21:40;;;;;;;;;11.00;11.00;;;;;26.88;44.31;98895.81;7699483;22;96553;-67
2023/06/06 13:24:44;;;;;;;;;12.00;11.00;;;;;26.84;45.10;98884.53;7700372;22;96200;-66
2023/06/06 13:27:49;;;;;;;;;13.00;11.40;;;;;26.79;44.99;98889.41;7671269;22;99234;-66
2023/06/06 13:30:53;;;;;;;;;11.20;10.20;;;;;26.73;44.61;98881.28;7697921;22;98276;-66
2023/06/06 13:33:56;;;;;;;;;10.60;9.60;;;;;26.78;45.47;98885.03;7698490;22;96353;-66
2023/06/06 13:37:01;;;;;;;;;11.00;10.00;;;;;26.79;45.11;98875.59;7699455;22;96754;-66
2023/06/06 13:40:06;;;;;;;;;11.40;11.00;;;;;26.83;45.41;98871.03;7700700;22;96343;-66
2023/06/06 13:43:11;;;;;;;;;11.00;10.60;;;;;26.93;46.12;98873.47;7674159;22;96299;-66
2023/06/06 13:46:18;;;;;;;;;15.40;13.00;;;;;27.05;46.17;98871.66;7699863;22;96258;-65
2023/06/06 13:49:22;;;;;;;;;12.00;11.00;;;;;27.19;45.46;98862.31;7644966;22;98448;-66
2023/06/06 13:52:26;;;;;;;;;13.00;12.00;;;;;27.32;44.92;98873.16;7696064;22;96425;-66
2023/06/06 13:55:30;;;;;;;;;14.00;12.75;;;;;27.40;43.65;98866.00;7697117;22;96290;-66
2023/06/06 13:58:39;;;;;;;;;12.00;11.00;;;;;27.48;42.88;98865.94;7698938;22;96243;-66
2023/06/06 14:01:46;;;;;;;;;11.20;11.00;;;;;27.50;43.17;98863.69;7697660;22;96834;-65
2023/06/06 14:04:50;;;;;;;;;13.00;12.00;;;;;27.53;42.81;98860.25;7671094;22;98282;-65
2023/06/06 14:07:54;;;;;;;;;13.60;12.00;;;;;27.54;42.98;98858.28;7695263;22;96249;-65
2023/06/06 14:10:57;;;;;;;;;13.00;13.00;;;;;27.52;42.90;98853.06;7643986;22;96957;-65
2023/06/06 14:14:06;;;;;;;;;10.00;9.00;;;;;27.49;39.66;98858.47;7696834;22;96779;-65
2023/06/06 14:17:09;;;;;;;;;10.60;10.60;;;;;27.44;39.91;98851.16;7696030;22;96038;-64
2023/06/06 14:20:20;;;;;;;;;11.00;9.40;;;;;27.43;40.90;98855.06;7696399;22;96957;-64
2023/06/06 14:23:24;;;;;;;;;12.00;11.50;;;;;27.38;39.97;98855.25;7670479;22;96730;-64